Time,TemperatureF,DewpointF,PressureIn,WindDirection,WindDirectionDegrees,WindSpeedMPH,WindSpeedGustMPH,Humidity,HourlyPrecipIn,Conditions,Clouds,dailyrainin,SoftwareType,DateUTC
2013-07-13 00:01:00,64.3,63.7,30.10,NNE,15,1.0,1.0,98,0.00,,,0.16,Wunderground v.1.15,2013-07-13 04:01:00,
2013-07-13 00:05:00,64.2,63.6,30.10,West,266,1.0,1.0,98,0.00,,,0.00,Wunderground v.1.15,2013-07-13 04:05:00,
2013-07-13 00:15:00,64.0,63.4,30.10,WSW,246,1.0,1.0,98,0.00,,,0.00,Wunderground v.1.15,2013-07-13 04:15:00,
2013-07-13 00:25:00,64.0,63.4,30.10,North,5,1.0,1.0,98,0.00,,,0.00,Wunderground v.1.15,2013-07-13 04:25:00,
2013-07-13 00:35:00,63.9,63.3,30.10,WNW,302,0.0,0.0,98,0.00,,,0.00,Wunderground v.1.15,2013-07-13 04:35:00,
2013-07-13 00:40:00,63.9,63.3,30.10,WNW,288,0.0,1.0,98,0.00,,,0.00,Wunderground v.1.15,2013-07-13 04:40:00,
2013-07-13 00:45:00,63.9,63.6,30.11,NNW,330,0.0,1.0,99,0.00,,,0.00,Wunderground v.1.15,2013-07-13 04:45:00,
2013-07-13 00:55:00,63.9,63.6,30.11,SW,219,1.0,1.0,99,0.00,,,0.00,Wunderground v.1.15,2013-07-13 04:55:00,
2013-07-13 01:00:00,64.0,63.7,30.11,West,260,0.0,0.0,99,0.00,,,0.00,Wunderground v.1.15,2013-07-13 05:00:00,
2013-07-13 01:10:00,64.0,63.7,30.11,NW,306,0.0,0.0,99,0.00,,,0.00,Wunderground v.1.15,2013-07-13 05:10:00,
2013-07-13 01:20:00,64.1,63.8,30.11,WSW,240,0.0,1.0,99,0.00,,,0.00,Wunderground v.1.15,2013-07-13 05:20:00,
2013-07-13 01:30:00,64.1,63.8,30.11,NW,317,0.0,0.0,99,0.00,,,0.00,Wunderground v.1.15,2013-07-13 05:30:00,
2013-07-13 01:40:00,64.1,63.8,30.11,NNW,333,0.0,0.0,99,0.00,,,0.00,Wunderground v.1.15,2013-07-13 05:40:00,
2013-07-13 01:45:00,64.0,63.4,30.11,West,278,0.0,2.0,98,0.00,,,0.00,Wunderground v.1.15,2013-07-13 05:45:00,
2013-07-13 01:55:00,64.1,63.8,30.12,WSW,257,0.0,1.0,99,0.00,,,0.00,Wunderground v.1.15,2013-07-13 05:55:00,
2013-07-13 02:00:00,64.1,63.5,30.11,WSW,257,0.0,0.0,98,0.00,,,0.00,Wunderground v.1.15,2013-07-13 06:00:00,
2013-07-13 02:10:00,64.2,63.9,30.12,WSW,242,0.0,0.0,99,0.00,,,0.00,Wunderground v.1.15,2013-07-13 06:10:00,
2013-07-13 02:15:00,64.2,63.9,30.12,West,275,0.0,0.0,99,0.00,,,0.00,Wunderground v.1.15,2013-07-13 06:15:00,
2013-07-13 02:25:00,64.3,64.0,30.12,North,355,0.0,0.0,99,0.00,,,0.00,Wunderground v.1.15,2013-07-13 06:25:00,
2013-07-13 02:35:00,64.3,63.7,30.12,NNW,345,0.0,1.0,98,0.00,,,0.00,Wunderground v.1.15,2013-07-13 06:35:00,
2013-07-13 02:45:00,64.4,64.1,30.12,SW,227,0.0,0.0,99,0.00,,,0.00,Wunderground v.1.15,2013-07-13 06:45:00,
2013-07-13 02:50:00,64.5,64.2,30.11,North,351,1.0,1.0,99,0.00,,,0.00,Wunderground v.1.15,2013-07-13 06:50:00,
2013-07-13 03:00:00,64.6,64.3,30.11,NW,325,0.0,4.0,99,0.00,,,0.00,Wunderground v.1.15,2013-07-13 07:00:00,
2013-07-13 03:10:00,64.6,64.3,30.11,East,94,0.0,0.0,99,0.00,,,0.00,Wunderground v.1.15,2013-07-13 07:10:00,
2013-07-13 03:20:00,64.6,64.3,30.12,SW,232,0.0,0.0,99,0.00,,,0.00,Wunderground v.1.15,2013-07-13 07:20:00,
2013-07-13 03:30:00,64.6,64.3,30.12,ENE,74,0.0,4.0,99,0.00,,,0.00,Wunderground v.1.15,2013-07-13 07:30:00,
2013-07-13 03:40:00,64.6,64.3,30.12,SW,214,0.0,0.0,99,0.00,,,0.00,Wunderground v.1.15,2013-07-13 07:40:00,
2013-07-13 03:45:00,64.6,64.3,30.12,SW,214,0.0,0.0,99,0.00,,,0.00,Wunderground v.1.15,2013-07-13 07:45:00,
2013-07-13 03:55:00,64.7,64.4,30.12,ESE,119,0.0,0.0,99,0.00,,,0.00,Wunderground v.1.15,2013-07-13 07:55:00,
2013-07-13 04:00:00,64.7,64.4,30.12,NNW,336,0.0,0.0,99,0.00,,,0.00,Wunderground v.1.15,2013-07-13 08:00:00,
2013-07-13 04:10:00,64.7,64.4,30.13,NNE,22,0.0,0.0,99,0.00,,,0.00,Wunderground v.1.15,2013-07-13 08:10:00,
2013-07-13 04:20:00,64.7,64.4,30.13,NW,309,0.0,2.0,99,0.00,,,0.00,Wunderground v.1.15,2013-07-13 08:20:00,
2013-07-13 04:25:00,64.8,64.5,30.13,NW,306,0.0,2.0,99,0.00,,,0.00,Wunderground v.1.15,2013-07-13 08:25:00,
2013-07-13 04:35:00,64.8,64.5,30.13,WNW,283,0.0,0.0,99,0.00,,,0.00,Wunderground v.1.15,2013-07-13 08:35:00,
2013-07-13 04:40:00,64.8,64.5,30.13,WNW,283,0.0,1.0,99,0.00,,,0.00,Wunderground v.1.15,2013-07-13 08:40:00,
2013-07-13 04:50:00,64.8,64.5,30.14,WNW,296,0.0,1.0,99,0.00,,,0.00,Wunderground v.1.15,2013-07-13 08:50:00,
2013-07-13 04:55:00,64.8,64.5,30.14,WNW,296,0.0,1.0,99,0.00,,,0.00,Wunderground v.1.15,2013-07-13 08:55:00,
2013-07-13 05:00:00,64.9,64.6,30.15,WNW,296,0.0,0.0,99,0.00,,,0.00,Wunderground v.1.15,2013-07-13 09:00:00,
2013-07-13 05:10:00,64.9,64.9,30.14,SW,232,0.0,0.0,100,0.00,,,0.00,Wunderground v.1.15,2013-07-13 09:10:00,
2013-07-13 05:20:00,64.9,64.9,30.15,NW,309,0.0,0.0,100,0.00,,,0.00,Wunderground v.1.15,2013-07-13 09:20:00,
2013-07-13 05:30:00,65.0,65.0,30.15,NNW,331,0.0,0.0,100,0.00,,,0.00,Wunderground v.1.15,2013-07-13 09:30:00,
2013-07-13 05:35:00,65.1,65.1,30.15,WNW,300,0.0,0.0,100,0.00,,,0.00,Wunderground v.1.15,2013-07-13 09:35:00,
2013-07-13 05:45:00,65.1,65.1,30.15,WNW,300,0.0,0.0,100,0.00,,,0.00,Wunderground v.1.15,2013-07-13 09:45:00,
2013-07-13 05:50:00,65.1,65.1,30.15,NNW,329,0.0,0.0,100,0.00,,,0.00,Wunderground v.1.15,2013-07-13 09:50:00,
2013-07-13 06:00:00,65.2,65.2,30.15,WNW,303,0.0,0.0,100,0.00,,,0.00,Wunderground v.1.15,2013-07-13 10:00:00,
2013-07-13 06:10:00,65.3,65.3,30.16,SW,234,0.0,0.0,100,0.00,,,0.00,Wunderground v.1.15,2013-07-13 10:10:00,
2013-07-13 06:20:00,65.4,65.4,30.16,NW,311,1.0,1.0,100,0.00,,,0.00,Wunderground v.1.15,2013-07-13 10:20:00,
2013-07-13 06:25:00,65.5,65.5,30.17,NNE,12,1.0,1.0,100,0.00,,,0.00,Wunderground v.1.15,2013-07-13 10:25:00,
2013-07-13 06:35:00,65.6,65.6,30.17,NNW,329,0.0,0.0,100,0.00,,,0.00,Wunderground v.1.15,2013-07-13 10:35:00,
2013-07-13 06:40:00,65.6,65.6,30.17,NNW,328,0.0,0.0,100,0.00,,,0.00,Wunderground v.1.15,2013-07-13 10:40:00,
2013-07-13 06:50:00,65.8,65.8,30.17,NNW,327,0.0,0.0,100,0.00,,,0.00,Wunderground v.1.15,2013-07-13 10:50:00,
2013-07-13 06:55:00,65.9,65.9,30.17,NNE,18,0.0,0.0,100,0.00,,,0.00,Wunderground v.1.15,2013-07-13 10:55:00,
2013-07-13 07:00:00,65.9,65.9,30.17,South,188,0.0,0.0,100,0.00,,,0.00,Wunderground v.1.15,2013-07-13 11:00:00,
2013-07-13 07:10:00,66.0,66.0,30.17,SW,221,0.0,0.0,100,0.00,,,0.00,Wunderground v.1.15,2013-07-13 11:10:00,
2013-07-13 07:20:00,66.2,66.2,30.18,WNW,296,0.0,0.0,100,0.00,,,0.00,Wunderground v.1.15,2013-07-13 11:20:00,
2013-07-13 07:30:00,66.3,66.3,30.18,West,267,0.0,0.0,100,0.00,,,0.00,Wunderground v.1.15,2013-07-13 11:30:00,
2013-07-13 07:35:00,66.4,66.4,30.18,West,267,0.0,0.0,100,0.00,,,0.00,Wunderground v.1.15,2013-07-13 11:35:00,
2013-07-13 07:45:00,66.6,66.6,30.18,West,267,0.0,0.0,100,0.00,,,0.00,Wunderground v.1.15,2013-07-13 11:45:00,
2013-07-13 07:50:00,66.6,66.6,30.19,WNW,288,0.0,0.0,100,0.00,,,0.00,Wunderground v.1.15,2013-07-13 11:50:00,
2013-07-13 08:00:00,66.8,66.8,30.19,WNW,288,0.0,0.0,100,0.00,,,0.00,Wunderground v.1.15,2013-07-13 12:00:00,
2013-07-13 08:10:00,66.8,66.8,30.20,WSW,249,0.0,0.0,100,0.00,,,0.00,Wunderground v.1.15,2013-07-13 12:10:00,
2013-07-13 08:15:00,66.8,66.8,30.20,SW,236,0.0,0.0,100,0.00,,,0.01,Wunderground v.1.15,2013-07-13 12:15:00,
2013-07-13 08:25:00,67.1,67.1,30.20,SW,236,0.0,1.0,100,0.00,,,0.01,Wunderground v.1.15,2013-07-13 12:25:00,
2013-07-13 08:35:00,67.3,67.3,30.20,NW,317,0.0,0.0,100,0.00,,,0.01,Wunderground v.1.15,2013-07-13 12:35:00,
2013-07-13 08:40:00,67.4,67.4,30.21,WNW,291,0.0,0.0,100,0.00,,,0.01,Wunderground v.1.15,2013-07-13 12:40:00,
2013-07-13 08:50:00,67.5,67.5,30.21,WNW,302,0.0,0.0,100,0.00,,,0.01,Wunderground v.1.15,2013-07-13 12:50:00,
2013-07-13 08:55:00,67.6,67.6,30.21,ESE,116,0.0,0.0,100,0.00,,,0.01,Wunderground v.1.15,2013-07-13 12:55:00,
2013-07-13 09:00:00,67.6,67.6,30.21,ESE,116,0.0,1.0,100,0.00,,,0.01,Wunderground v.1.15,2013-07-13 13:00:00,
2013-07-13 09:10:00,67.7,67.7,30.22,NW,320,0.0,0.0,100,0.00,,,0.02,Wunderground v.1.15,2013-07-13 13:10:00,
2013-07-13 09:20:00,67.8,67.8,30.22,West,264,0.0,0.0,100,0.00,,,0.02,Wunderground v.1.15,2013-07-13 13:20:00,
2013-07-13 09:30:00,68.0,68.0,30.22,NNW,333,0.0,1.0,100,0.00,,,0.02,Wunderground v.1.15,2013-07-13 13:30:00,
2013-07-13 09:40:00,68.1,68.1,30.21,South,186,0.0,0.0,100,0.00,,,0.02,Wunderground v.1.15,2013-07-13 13:40:00,
2013-07-13 09:45:00,68.2,68.2,30.21,South,186,0.0,0.0,100,0.00,,,0.02,Wunderground v.1.15,2013-07-13 13:45:00,
2013-07-13 09:55:00,68.4,68.4,30.22,West,269,0.0,0.0,100,0.00,,,0.02,Wunderground v.1.15,2013-07-13 13:55:00,
2013-07-13 10:00:00,68.7,68.7,30.22,West,269,0.0,0.0,100,0.00,,,0.02,Wunderground v.1.15,2013-07-13 14:00:00,
2013-07-13 10:10:00,69.1,69.1,30.22,SSW,194,1.0,1.0,100,0.00,,,0.02,Wunderground v.1.15,2013-07-13 14:10:00,
2013-07-13 10:20:00,69.2,69.2,30.22,WNW,288,0.0,1.0,100,0.00,,,0.02,Wunderground v.1.15,2013-07-13 14:20:00,
2013-07-13 10:25:00,69.3,69.3,30.22,WNW,288,0.0,1.0,100,0.00,,,0.02,Wunderground v.1.15,2013-07-13 14:25:00,
2013-07-13 10:35:00,69.6,69.6,30.22,SSW,192,0.0,0.0,100,0.00,,,0.02,Wunderground v.1.15,2013-07-13 14:35:00,
2013-07-13 10:40:00,69.8,69.8,30.23,NW,323,0.0,1.0,100,0.00,,,0.02,Wunderground v.1.15,2013-07-13 14:40:00,
2013-07-13 10:50:00,69.9,69.6,30.23,NW,323,0.0,0.0,99,0.00,,,0.02,Wunderground v.1.15,2013-07-13 14:50:00,
2013-07-13 10:55:00,70.0,69.7,30.23,West,271,0.0,0.0,99,0.00,,,0.02,Wunderground v.1.15,2013-07-13 14:55:00,
2013-07-13 11:00:00,70.2,69.9,30.22,West,271,0.0,0.0,99,0.00,,,0.02,Wunderground v.1.15,2013-07-13 15:00:00,
2013-07-13 11:10:00,70.4,70.1,30.23,West,271,0.0,0.0,99,0.00,,,0.02,Wunderground v.1.15,2013-07-13 15:10:00,
2013-07-13 11:20:00,70.5,70.2,30.23,NW,309,0.0,0.0,99,0.00,,,0.02,Wunderground v.1.15,2013-07-13 15:20:00,
2013-07-13 11:30:00,70.7,70.4,30.22,NW,309,0.0,0.0,99,0.00,,,0.02,Wunderground v.1.15,2013-07-13 15:30:00,
2013-07-13 11:40:00,71.0,70.7,30.22,SW,214,0.0,0.0,99,0.00,,,0.02,Wunderground v.1.15,2013-07-13 15:40:00,
2013-07-13 11:45:00,71.1,70.8,30.22,SSW,213,0.0,0.0,99,0.00,,,0.02,Wunderground v.1.15,2013-07-13 15:45:00,
2013-07-13 11:55:00,71.7,71.4,30.23,SW,214,0.0,0.0,99,0.00,,,0.02,Wunderground v.1.15,2013-07-13 15:55:00,
2013-07-13 12:00:00,72.3,72.0,30.23,SW,214,0.0,0.0,99,0.00,,,0.02,Wunderground v.1.15,2013-07-13 16:00:00,
2013-07-13 12:10:00,73.2,72.6,30.23,South,178,0.0,1.0,98,0.00,,,0.02,Wunderground v.1.15,2013-07-13 16:10:00,
2013-07-13 12:20:00,74.2,73.3,30.23,South,187,0.0,0.0,97,0.00,,,0.02,Wunderground v.1.15,2013-07-13 16:20:00,
2013-07-13 12:25:00,74.3,72.8,30.23,South,174,0.0,0.0,95,0.00,,,0.02,Wunderground v.1.15,2013-07-13 16:25:00,
2013-07-13 12:35:00,74.4,72.9,30.23,South,174,0.0,1.0,95,0.00,,,0.02,Wunderground v.1.15,2013-07-13 16:35:00,
2013-07-13 12:40:00,74.6,73.1,30.23,South,174,0.0,0.0,95,0.00,,,0.02,Wunderground v.1.15,2013-07-13 16:40:00,
2013-07-13 12:50:00,75.0,72.8,30.23,SSE,153,0.0,0.0,93,0.00,,,0.02,Wunderground v.1.15,2013-07-13 16:50:00,
2013-07-13 12:55:00,75.2,73.4,30.23,SE,142,0.0,2.0,94,0.00,,,0.02,Wunderground v.1.15,2013-07-13 16:55:00,
2013-07-13 13:00:00,75.6,73.8,30.23,South,179,0.0,0.0,94,0.00,,,0.02,Wunderground v.1.15,2013-07-13 17:00:00,
2013-07-13 13:10:00,76.9,74.7,30.23,SSE,167,1.0,1.0,93,0.00,,,0.02,Wunderground v.1.15,2013-07-13 17:10:00,
2013-07-13 13:20:00,77.9,75.1,30.22,SE,145,1.0,1.0,91,0.00,,,0.02,Wunderground v.1.15,2013-07-13 17:20:00,
2013-07-13 13:30:00,77.5,74.7,30.23,SE,145,1.0,1.0,91,0.00,,,0.02,Wunderground v.1.15,2013-07-13 17:30:00,
2013-07-13 13:40:00,77.3,74.5,30.22,South,185,0.0,1.0,91,0.00,,,0.02,Wunderground v.1.15,2013-07-13 17:40:00,
2013-07-13 13:45:00,77.4,74.6,30.23,South,178,0.0,1.0,91,0.00,,,0.02,Wunderground v.1.15,2013-07-13 17:45:00,
2013-07-13 13:55:00,77.1,73.9,30.23,South,184,0.0,1.0,90,0.00,,,0.02,Wunderground v.1.15,2013-07-13 17:55:00,
2013-07-13 14:00:00,77.0,73.8,30.23,SSE,164,0.0,0.0,90,0.00,,,0.02,Wunderground v.1.15,2013-07-13 18:00:00,
2013-07-13 14:10:00,77.2,74.7,30.23,ENE,78,0.0,0.0,92,0.00,,,0.02,Wunderground v.1.15,2013-07-13 18:10:00,
2013-07-13 14:15:00,77.2,74.4,30.23,ENE,78,0.0,0.0,91,0.00,,,0.02,Wunderground v.1.15,2013-07-13 18:15:00,
2013-07-13 14:25:00,77.7,74.9,30.23,SSE,165,1.0,1.0,91,0.00,,,0.02,Wunderground v.1.15,2013-07-13 18:25:00,
2013-07-13 14:35:00,78.3,75.5,30.22,South,177,1.0,3.0,91,0.00,,,0.02,Wunderground v.1.15,2013-07-13 18:35:00,
2013-07-13 14:40:00,78.3,74.5,30.23,ESE,103,1.0,1.0,88,0.00,,,0.02,Wunderground v.1.15,2013-07-13 18:40:00,
2013-07-13 14:50:00,77.9,75.1,30.22,ESE,113,0.0,1.0,91,0.00,,,0.02,Wunderground v.1.15,2013-07-13 18:50:00,
2013-07-13 14:55:00,78.0,74.8,30.22,SW,217,0.0,1.0,90,0.00,,,0.02,Wunderground v.1.15,2013-07-13 18:55:00,
2013-07-13 15:00:00,78.7,75.5,30.23,South,169,1.0,1.0,90,0.00,,,0.02,Wunderground v.1.15,2013-07-13 19:00:00,
2013-07-13 15:10:00,79.4,74.8,30.23,South,178,1.0,1.0,86,0.00,,,0.02,Wunderground v.1.15,2013-07-13 19:10:00,
2013-07-13 15:20:00,79.0,75.1,30.23,SE,130,0.0,0.0,88,0.00,,,0.02,Wunderground v.1.15,2013-07-13 19:20:00,
2013-07-13 15:30:00,79.0,74.8,30.23,South,184,0.0,1.0,87,0.00,,,0.02,Wunderground v.1.15,2013-07-13 19:30:00,
2013-07-13 15:40:00,78.8,74.9,30.22,SSW,205,1.0,1.0,88,0.00,,,0.02,Wunderground v.1.15,2013-07-13 19:40:00,
2013-07-13 15:45:00,78.7,75.2,30.22,West,276,0.0,1.0,89,0.00,,,0.02,Wunderground v.1.15,2013-07-13 19:45:00,
2013-07-13 15:55:00,78.4,74.5,30.22,West,271,0.0,0.0,88,0.00,,,0.02,Wunderground v.1.15,2013-07-13 19:55:00,
2013-07-13 16:00:00,78.2,74.7,30.22,NW,312,0.0,0.0,89,0.00,,,0.02,Wunderground v.1.15,2013-07-13 20:00:00,
2013-07-13 16:10:00,78.1,74.6,30.22,NW,312,0.0,0.0,89,0.00,,,0.02,Wunderground v.1.15,2013-07-13 20:10:00,
2013-07-13 16:20:00,78.2,75.0,30.22,West,279,0.0,0.0,90,0.00,,,0.02,Wunderground v.1.15,2013-07-13 20:20:00,
2013-07-13 16:25:00,78.1,74.9,30.21,WNW,292,0.0,0.0,90,0.00,,,0.02,Wunderground v.1.15,2013-07-13 20:25:00,
2013-07-13 16:35:00,78.0,74.5,30.22,WNW,292,0.0,0.0,89,0.00,,,0.02,Wunderground v.1.15,2013-07-13 20:35:00,
2013-07-13 16:45:00,78.0,74.8,30.22,West,259,0.0,0.0,90,0.00,,,0.02,Wunderground v.1.15,2013-07-13 20:45:00,
2013-07-13 16:55:00,77.9,74.7,30.22,WNW,298,0.0,1.0,90,0.00,,,0.02,Wunderground v.1.15,2013-07-13 20:55:00,
2013-07-13 17:00:00,77.9,74.4,30.22,WNW,298,0.0,0.0,89,0.00,,,0.02,Wunderground v.1.15,2013-07-13 21:00:00,
2013-07-13 17:10:00,77.9,74.7,30.22,SSW,207,0.0,1.0,90,0.00,,,0.02,Wunderground v.1.15,2013-07-13 21:10:00,
2013-07-13 17:20:00,78.0,75.2,30.22,WSW,244,0.0,0.0,91,0.00,,,0.02,Wunderground v.1.15,2013-07-13 21:20:00,
2013-07-13 17:30:00,78.1,74.9,30.23,WSW,257,0.0,0.0,90,0.00,,,0.02,Wunderground v.1.15,2013-07-13 21:30:00,
2013-07-13 17:35:00,78.0,74.5,30.22,WSW,257,0.0,0.0,89,0.00,,,0.02,Wunderground v.1.15,2013-07-13 21:35:00,
2013-07-13 17:45:00,78.0,74.8,30.22,WSW,257,0.0,0.0,90,0.00,,,0.02,Wunderground v.1.15,2013-07-13 21:45:00,
2013-07-13 17:50:00,77.9,74.7,30.23,ESE,105,0.0,0.0,90,0.00,,,0.02,Wunderground v.1.15,2013-07-13 21:50:00,
2013-07-13 18:00:00,77.6,74.4,30.23,ESE,113,0.0,0.0,90,0.00,,,0.02,Wunderground v.1.15,2013-07-13 22:00:00,
2013-07-13 18:10:00,77.3,74.1,30.23,SW,223,0.0,0.0,90,0.00,,,0.02,Wunderground v.1.15,2013-07-13 22:10:00,
2013-07-13 18:15:00,77.2,74.0,30.23,SSW,193,0.0,1.0,90,0.00,,,0.02,Wunderground v.1.15,2013-07-13 22:15:00,
2013-07-13 18:25:00,77.2,74.4,30.23,SSW,193,0.0,0.0,91,0.00,,,0.02,Wunderground v.1.15,2013-07-13 22:25:00,
2013-07-13 18:30:00,77.0,74.2,30.23,SSW,193,0.0,0.0,91,0.00,,,0.03,Wunderground v.1.15,2013-07-13 22:30:00,
2013-07-13 18:40:00,76.7,74.5,30.24,SSW,193,0.0,0.0,93,0.07,,,0.04,Wunderground v.1.15,2013-07-13 22:40:00,
2013-07-13 18:45:00,76.5,74.3,30.24,SSW,193,0.0,0.0,93,0.04,,,0.04,Wunderground v.1.15,2013-07-13 22:45:00,
2013-07-13 18:55:00,75.9,74.0,30.24,SSW,193,0.0,0.0,94,0.00,,,0.05,Wunderground v.1.15,2013-07-13 22:55:00,
2013-07-13 19:00:00,75.7,74.2,30.24,SSW,193,0.0,0.0,95,0.70,,,0.08,Wunderground v.1.15,2013-07-13 23:00:00,
2013-07-13 19:10:00,75.3,74.1,30.24,SSW,193,1.0,1.0,96,0.26,,,0.11,Wunderground v.1.15,2013-07-13 23:10:00,
2013-07-13 19:20:00,75.0,74.1,30.24,SSW,193,0.0,0.0,97,0.08,,,0.12,Wunderground v.1.15,2013-07-13 23:20:00,
2013-07-13 19:25:00,74.9,74.0,30.24,SSW,193,0.0,0.0,97,0.05,,,0.12,Wunderground v.1.15,2013-07-13 23:25:00,
2013-07-13 19:35:00,74.8,74.2,30.24,SSW,193,0.0,0.0,98,0.00,,,0.12,Wunderground v.1.15,2013-07-13 23:35:00,
2013-07-13 19:40:00,74.7,74.1,30.24,SSW,193,0.0,0.0,98,0.00,,,0.12,Wunderground v.1.15,2013-07-13 23:40:00,
2013-07-13 19:50:00,74.5,73.9,30.24,SSW,193,0.0,0.0,98,0.00,,,0.12,Wunderground v.1.15,2013-07-13 23:50:00,
2013-07-13 20:00:00,74.4,73.8,30.24,SSW,193,0.0,0.0,98,0.00,,,0.12,Wunderground v.1.15,2013-07-14 00:00:00,
2013-07-13 20:10:00,74.4,73.8,30.24,SSW,193,0.0,0.0,98,0.00,,,0.12,Wunderground v.1.15,2013-07-14 00:10:00,
2013-07-13 20:15:00,74.3,73.7,30.24,SSW,193,0.0,0.0,98,0.00,,,0.12,Wunderground v.1.15,2013-07-14 00:15:00,
2013-07-13 20:25:00,74.1,73.5,30.24,SSW,193,0.0,0.0,98,0.00,,,0.12,Wunderground v.1.15,2013-07-14 00:25:00,
2013-07-13 20:30:00,74.0,73.7,30.24,SSW,193,0.0,0.0,99,0.00,,,0.12,Wunderground v.1.15,2013-07-14 00:30:00,
2013-07-13 20:40:00,73.9,73.6,30.24,SSW,193,0.0,0.0,99,0.00,,,0.12,Wunderground v.1.15,2013-07-14 00:40:00,
2013-07-13 20:45:00,73.8,73.5,30.24,SSW,193,0.0,0.0,99,0.00,,,0.12,Wunderground v.1.15,2013-07-14 00:45:00,
2013-07-13 20:55:00,73.6,73.3,30.24,SSW,193,0.0,0.0,99,0.00,,,0.12,Wunderground v.1.15,2013-07-14 00:55:00,
2013-07-13 21:00:00,73.4,73.1,30.24,SSW,193,0.0,0.0,99,0.00,,,0.12,Wunderground v.1.15,2013-07-14 01:00:00,
2013-07-13 21:10:00,73.3,73.0,30.25,SSW,193,0.0,0.0,99,0.00,,,0.12,Wunderground v.1.15,2013-07-14 01:10:00,
2013-07-13 21:20:00,73.2,72.9,30.25,SSW,193,0.0,0.0,99,0.00,,,0.12,Wunderground v.1.15,2013-07-14 01:20:00,
2013-07-13 21:30:00,73.2,72.9,30.25,SSW,193,0.0,0.0,99,0.00,,,0.12,Wunderground v.1.15,2013-07-14 01:30:00,
2013-07-13 21:35:00,73.2,72.9,30.25,SSW,193,0.0,0.0,99,0.00,,,0.12,Wunderground v.1.15,2013-07-14 01:35:00,
2013-07-13 21:45:00,73.0,72.7,30.25,SSW,193,0.0,0.0,99,0.00,,,0.12,Wunderground v.1.15,2013-07-14 01:45:00,
2013-07-13 21:50:00,73.0,72.7,30.26,SSW,193,0.0,0.0,99,0.00,,,0.12,Wunderground v.1.15,2013-07-14 01:50:00,
2013-07-13 22:00:00,72.9,72.6,30.25,SSW,193,0.0,0.0,99,0.00,,,0.12,Wunderground v.1.15,2013-07-14 02:00:00,
2013-07-13 22:10:00,72.9,72.6,30.25,SSW,193,0.0,0.0,99,0.00,,,0.12,Wunderground v.1.15,2013-07-14 02:10:00,
2013-07-13 22:15:00,72.8,72.5,30.26,SSW,193,0.0,0.0,99,0.00,,,0.12,Wunderground v.1.15,2013-07-14 02:15:00,
2013-07-13 22:25:00,72.9,72.9,30.26,SSW,193,0.0,0.0,100,0.00,,,0.12,Wunderground v.1.15,2013-07-14 02:25:00,
2013-07-13 22:30:00,72.9,72.9,30.26,SSW,193,0.0,0.0,100,0.00,,,0.12,Wunderground v.1.15,2013-07-14 02:30:00,
2013-07-13 22:40:00,72.9,72.9,30.26,SSW,193,0.0,0.0,100,0.00,,,0.12,Wunderground v.1.15,2013-07-14 02:40:00,
2013-07-13 22:50:00,73.0,73.0,30.26,SSW,193,0.0,0.0,100,0.00,,,0.12,Wunderground v.1.15,2013-07-14 02:50:00,
2013-07-13 22:55:00,73.0,73.0,30.26,SSW,193,0.0,0.0,100,0.00,,,0.12,Wunderground v.1.15,2013-07-14 02:55:00,
2013-07-13 23:00:00,72.9,72.9,30.26,SSW,193,0.0,0.0,100,0.00,,,0.12,Wunderground v.1.15,2013-07-14 03:00:00,
2013-07-13 23:10:00,73.0,73.0,30.26,SSW,193,0.0,0.0,100,0.00,,,0.12,Wunderground v.1.15,2013-07-14 03:10:00,
2013-07-13 23:20:00,72.9,72.9,30.26,SSW,193,0.0,0.0,100,0.00,,,0.12,Wunderground v.1.15,2013-07-14 03:20:00,
2013-07-13 23:30:00,73.0,73.0,30.26,SSW,193,0.0,0.0,100,0.00,,,0.12,Wunderground v.1.15,2013-07-14 03:30:00,
2013-07-13 23:40:00,73.0,73.0,30.26,SSW,193,0.0,0.0,100,0.00,,,0.12,Wunderground v.1.15,2013-07-14 03:40:00,
2013-07-13 23:45:00,72.9,72.9,30.26,SSW,193,0.0,0.0,100,0.00,,,0.12,Wunderground v.1.15,2013-07-14 03:45:00,
2013-07-13 23:55:00,72.8,72.8,30.26,SSW,193,0.0,0.0,100,0.00,,,0.12,Wunderground v.1.15,2013-07-14 03:55:00,